Delray Beach, FL (33483)

5:38 PM EDT on April 26, 2015 (GMT -0400)
Casa Delray | | Change Station
CLOSE
Current Station
Personal Weather Station
Location: Delray Beach, FL
Elevation: 22 ft
Nearby Weather Stations

Elev 22 ft 26.48 °N, 80.07 °W | Updated 18 seconds ago

Partly Cloudy
Partly Cloudy
94.6 °F
Feels Like 104 °F
N
1.1
Wind Variable Wind from NNW
Gusts 2.5 mph

Today
High -- | Low -- °F
--% Chance of Precip.
Yesterday
High -- | Low -- °F
Precip. -- in
6:46 AM 7:49 PM
First Quarter, 59% visible
Pressure 29.75 in
Visibility 8.0 miles
Clouds Clear
Heat Index 104 °F
Dew Point 72 °F
Humidity 49%
Rainfall 0.00 in
Snow Depth Not available.
UV 2.0 out of 12
Pollen 7.30 out of 12
Air Quality Not available.
Flu Activity Local Activity
METAR KPMP 262053Z 25017G25KT 8SM CLR 36/19 A2974 RMK AO2 SLP073 T03610194 56016

More Conditions Fewer Conditions

Pressure 29.75 in
Visibility 8.0 miles
Clouds Clear
Heat Index 104 °F
Dew Point 72 °F
Humidity 49%
Rainfall 0.00 in
Snow Depth Not available.
UV 2.0 out of 12
Pollen 7.30 out of 12
Air Quality Not available.
Flu Activity Local Activity
METAR KPMP 262053Z 25017G25KT 8SM CLR 36/19 A2974 RMK AO2 SLP073 T03610194 56016

More Conditions Fewer Conditions

The full scope of the disaster following a powerful 7.8-magnitude earthquake in Nepal may not come into view for days, but global charities are already sending emergency aid. Click to see how you can help.

10-Day Weather Forecast

Almanac

Astronomy

Apr. 26, 2015 Rise Set
Actual Time
Civil Twilight
Nautical Twilight
Astronomical Twilight
Moon
Length of Visible Light
Length of Day
Tomorrow will be .
, % of the Moon is Illuminated

Today's Extremes

State Highs State Lows

Community

WunderPhotos

Upload Photos

1,817,127 photos uploaded!

WunderBlogs® & News

Nearby

Air Quality

  Air Quality AQ Index Pollutant
Not available.

Snow Depth

Station Depth Elevation

Earthquake Activity

City Distance Mag. Time & Date
Minimum magnitude displayed is 2.5.

Coastal Water Temperatures

Place Temperature

Stations

Nearby Weather Stations

Station Location Temp. Windchill Dew Point Humidity Wind Precip. Elev Updated Type